sensor_id;sensor_type;location;lat;lon;timestamp;pressure;altitude;pressure_sealevel;temperature;humidity
61345;BME280;47216;42.656;23.232;2023-08-17T00:01:34;93982.66;;;21.06;70.78
61345;BME280;47216;42.656;23.232;2023-08-17T00:04:01;93981.38;;;21.12;70.54
61345;BME280;47216;42.656;23.232;2023-08-17T00:06:27;93993.09;;;21.11;70.78
61345;BME280;47216;42.656;23.232;2023-08-17T00:08:54;93994.66;;;21.12;70.47
61345;BME280;47216;42.656;23.232;2023-08-17T00:11:21;93987.47;;;21.04;70.75
61345;BME280;47216;42.656;23.232;2023-08-17T00:13:49;93989.84;;;21.05;70.83
61345;BME280;47216;42.656;23.232;2023-08-17T00:16:16;93995.75;;;21.11;70.66
61345;BME280;47216;42.656;23.232;2023-08-17T00:18:43;93993.25;;;21.06;70.02
61345;BME280;47216;42.656;23.232;2023-08-17T00:21:10;93995.13;;;21.14;70.13
61345;BME280;47216;42.656;23.232;2023-08-17T00:23:36;93991.41;;;21.15;69.89
61345;BME280;47216;42.656;23.232;2023-08-17T00:26:03;93988.88;;;21.18;70.18
61345;BME280;47216;42.656;23.232;2023-08-17T00:28:30;93995.13;;;21.14;70.43
61345;BME280;47216;42.656;23.232;2023-08-17T00:30:59;93995.13;;;21.05;70.88
61345;BME280;47216;42.656;23.232;2023-08-17T00:33:26;93992.47;;;20.96;71.23
61345;BME280;47216;42.656;23.232;2023-08-17T00:35:53;93987.44;;;20.86;71.72
61345;BME280;47216;42.656;23.232;2023-08-17T00:38:19;94005.53;;;20.84;71.97
61345;BME280;47216;42.656;23.232;2023-08-17T00:40:46;93990.97;;;20.64;72.48
61345;BME280;47216;42.656;23.232;2023-08-17T00:43:13;93995.72;;;20.53;72.60
61345;BME280;47216;42.656;23.232;2023-08-17T00:45:40;93997.22;;;20.37;73.23
61345;BME280;47216;42.656;23.232;2023-08-17T00:48:08;93987.38;;;20.38;73.42
61345;BME280;47216;42.656;23.232;2023-08-17T00:50:36;93991.91;;;20.37;73.59
61345;BME280;47216;42.656;23.232;2023-08-17T00:53:03;93999.38;;;20.35;73.43
61345;BME280;47216;42.656;23.232;2023-08-17T00:55:31;93998.91;;;20.33;73.42
61345;BME280;47216;42.656;23.232;2023-08-17T00:57:58;93998.41;;;20.31;73.67
61345;BME280;47216;42.656;23.232;2023-08-17T01:00:25;93992.66;;;20.29;73.45
61345;BME280;47216;42.656;23.232;2023-08-17T01:02:53;93992.63;;;20.20;73.63
61345;BME280;47216;42.656;23.232;2023-08-17T01:05:21;93991.47;;;20.12;73.56
61345;BME280;47216;42.656;23.232;2023-08-17T01:07:49;93998.00;;;20.06;74.18
61345;BME280;47216;42.656;23.232;2023-08-17T01:10:16;93992.34;;;19.99;74.21
61345;BME280;47216;42.656;23.232;2023-08-17T01:12:48;93987.06;;;19.99;74.27
61345;BME280;47216;42.656;23.232;2023-08-17T01:15:20;93987.97;;;19.94;74.17
61345;BME280;47216;42.656;23.232;2023-08-17T01:17:54;93994.31;;;19.93;74.30
61345;BME280;47216;42.656;23.232;2023-08-17T01:20:25;93991.44;;;19.81;74.30
61345;BME280;47216;42.656;23.232;2023-08-17T01:22:55;93986.09;;;19.72;74.55
61345;BME280;47216;42.656;23.232;2023-08-17T01:25:25;93985.97;;;19.78;74.48
61345;BME280;47216;42.656;23.232;2023-08-17T01:27:52;93981.78;;;19.77;74.19
61345;BME280;47216;42.656;23.232;2023-08-17T01:30:19;93989.22;;;19.75;74.15
61345;BME280;47216;42.656;23.232;2023-08-17T01:32:50;93986.19;;;19.67;74.20
61345;BME280;47216;42.656;23.232;2023-08-17T01:35:24;93979.75;;;19.60;74.63
61345;BME280;47216;42.656;23.232;2023-08-17T01:37:58;93978.03;;;19.55;74.58
61345;BME280;47216;42.656;23.232;2023-08-17T01:40:28;93971.94;;;19.55;74.37
61345;BME280;47216;42.656;23.232;2023-08-17T01:42:56;93973.91;;;19.49;74.68
61345;BME280;47216;42.656;23.232;2023-08-17T01:45:24;93986.50;;;19.43;74.87
61345;BME280;47216;42.656;23.232;2023-08-17T01:47:51;93984.84;;;19.34;75.11
61345;BME280;47216;42.656;23.232;2023-08-17T01:50:17;93981.25;;;19.29;75.13
61345;BME280;47216;42.656;23.232;2023-08-17T01:52:44;93981.00;;;19.40;74.81
61345;BME280;47216;42.656;23.232;2023-08-17T01:55:11;93983.16;;;19.38;74.83
61345;BME280;47216;42.656;23.232;2023-08-17T01:57:39;93991.34;;;19.27;74.64
61345;BME280;47216;42.656;23.232;2023-08-17T02:00:07;93990.47;;;19.18;75.04
61345;BME280;47216;42.656;23.232;2023-08-17T02:02:36;93986.16;;;19.08;75.30
61345;BME280;47216;42.656;23.232;2023-08-17T02:05:03;93983.63;;;19.03;75.33
61345;BME280;47216;42.656;23.232;2023-08-17T02:07:30;93978.75;;;18.97;75.06
61345;BME280;47216;42.656;23.232;2023-08-17T02:09:56;93972.91;;;18.86;75.16
61345;BME280;47216;42.656;23.232;2023-08-17T02:12:23;93982.47;;;18.96;75.32
61345;BME280;47216;42.656;23.232;2023-08-17T02:14:52;93977.78;;;18.93;75.13
61345;BME280;47216;42.656;23.232;2023-08-17T02:17:18;93978.84;;;18.92;74.62
61345;BME280;47216;42.656;23.232;2023-08-17T02:19:47;93986.19;;;18.95;nan
61345;BME280;47216;42.656;23.232;2023-08-17T02:22:13;93978.47;;;18.98;74.54
61345;BME280;47216;42.656;23.232;2023-08-17T02:24:40;93980.31;;;18.98;74.23
61345;BME280;47216;42.656;23.232;2023-08-17T02:27:08;93980.13;;;18.94;74.42
61345;BME280;47216;42.656;23.232;2023-08-17T02:29:35;93984.84;;;18.97;74.03
61345;BME280;47216;42.656;23.232;2023-08-17T02:32:04;93981.88;;;18.99;74.01
61345;BME280;47216;42.656;23.232;2023-08-17T02:34:31;93983.63;;;19.03;73.73
61345;BME280;47216;42.656;23.232;2023-08-17T02:36:58;93978.16;;;19.00;73.08
61345;BME280;47216;42.656;23.232;2023-08-17T02:39:25;93985.22;;;18.91;73.50
61345;BME280;47216;42.656;23.232;2023-08-17T02:41:52;93982.38;;;18.87;73.58
61345;BME280;47216;42.656;23.232;2023-08-17T02:44:20;93986.41;;;18.84;73.55
61345;BME280;47216;42.656;23.232;2023-08-17T02:46:46;93978.00;;;18.82;73.57
61345;BME280;47216;42.656;23.232;2023-08-17T02:49:14;93979.16;;;18.76;73.08
61345;BME280;47216;42.656;23.232;2023-08-17T02:51:41;93982.84;;;18.75;73.12
61345;BME280;47216;42.656;23.232;2023-08-17T02:54:08;93974.44;;;18.73;73.51
61345;BME280;47216;42.656;23.232;2023-08-17T02:56:35;93970.94;;;18.64;73.31
61345;BME280;47216;42.656;23.232;2023-08-17T02:59:01;93982.09;;;18.61;73.39
61345;BME280;47216;42.656;23.232;2023-08-17T03:01:28;93977.31;;;18.63;73.58
61345;BME280;47216;42.656;23.232;2023-08-17T03:03:56;93971.53;;;18.61;72.90
61345;BME280;47216;42.656;23.232;2023-08-17T03:06:24;93974.34;;;18.64;72.94
61345;BME280;47216;42.656;23.232;2023-08-17T03:08:51;93979.44;;;18.47;72.79
61345;BME280;47216;42.656;23.232;2023-08-17T03:11:19;93976.69;;;18.38;73.19
61345;BME280;47216;42.656;23.232;2023-08-17T03:13:46;93974.84;;;18.39;73.06
61345;BME280;47216;42.656;23.232;2023-08-17T03:16:14;93976.03;;;18.33;73.46
61345;BME280;47216;42.656;23.232;2023-08-17T03:18:40;93984.63;;;18.38;73.56
61345;BME280;47216;42.656;23.232;2023-08-17T03:21:08;93979.56;;;18.42;73.71
61345;BME280;47216;42.656;23.232;2023-08-17T03:23:36;93985.78;;;18.46;72.92
61345;BME280;47216;42.656;23.232;2023-08-17T03:26:03;93985.59;;;18.42;72.80
61345;BME280;47216;42.656;23.232;2023-08-17T03:28:30;93985.78;;;18.46;72.88
61345;BME280;47216;42.656;23.232;2023-08-17T03:30:56;93983.06;;;18.37;72.87
61345;BME280;47216;42.656;23.232;2023-08-17T03:33:23;93985.22;;;18.35;72.90
61345;BME280;47216;42.656;23.232;2023-08-17T03:35:50;93983.63;;;18.34;73.39
61345;BME280;47216;42.656;23.232;2023-08-17T03:38:17;93991.28;;;18.36;73.41
61345;BME280;47216;42.656;23.232;2023-08-17T03:40:45;93991.47;;;18.39;73.03
61345;BME280;47216;42.656;23.232;2023-08-17T03:43:12;93985.59;;;18.42;72.65
61345;BME280;47216;42.656;23.232;2023-08-17T03:45:40;93995.09;;;18.43;71.99
61345;BME280;47216;42.656;23.232;2023-08-17T03:48:07;93989.63;;;18.40;72.16
61345;BME280;47216;42.656;23.232;2023-08-17T03:50:34;93990.88;;;18.29;72.31
61345;BME280;47216;42.656;23.232;2023-08-17T03:53:01;93996.16;;;18.29;72.76
61345;BME280;47216;42.656;23.232;2023-08-17T03:55:28;94003.56;;;18.26;72.83
61345;BME280;47216;42.656;23.232;2023-08-17T03:57:56;94003.56;;;18.26;73.03
61345;BME280;47216;42.656;23.232;2023-08-17T04:00:23;94003.78;;;18.30;72.86
61345;BME280;47216;42.656;23.232;2023-08-17T04:02:49;94003.00;;;18.30;73.07
61345;BME280;47216;42.656;23.232;2023-08-17T04:05:16;94004.75;;;18.34;72.86
61345;BME280;47216;42.656;23.232;2023-08-17T04:07:43;94006.13;;;18.32;72.94
61345;BME280;47216;42.656;23.232;2023-08-17T04:10:10;94012.00;;;18.29;72.85
61345;BME280;47216;42.656;23.232;2023-08-17T04:12:37;94007.22;;;18.31;73.12
61345;BME280;47216;42.656;23.232;2023-08-17T04:15:05;94007.22;;;18.31;73.33
61345;BME280;47216;42.656;23.232;2023-08-17T04:17:33;94002.22;;;18.29;73.32
61345;BME280;47216;42.656;23.232;2023-08-17T04:20:00;94009.94;;;18.25;73.51
61345;BME280;47216;42.656;23.232;2023-08-17T04:22:27;94001.06;;;18.35;73.52
61345;BME280;47216;42.656;23.232;2023-08-17T04:24:53;94002.03;;;18.39;73.42
61345;BME280;47216;42.656;23.232;2023-08-17T04:27:20;93999.47;;;18.48;73.44
61345;BME280;47216;42.656;23.232;2023-08-17T04:29:47;94003.59;;;18.54;73.36
61345;BME280;47216;42.656;23.232;2023-08-17T04:32:15;94001.63;;;18.60;73.60
61345;BME280;47216;42.656;23.232;2023-08-17T04:34:43;94005.97;;;18.69;73.80
61345;BME280;47216;42.656;23.232;2023-08-17T04:37:10;94004.59;;;18.72;73.43
61345;BME280;47216;42.656;23.232;2023-08-17T04:39:36;94001.88;;;18.77;73.36
61345;BME280;47216;42.656;23.232;2023-08-17T04:42:04;94001.19;;;18.85;73.11
61345;BME280;47216;42.656;23.232;2023-08-17T04:44:30;94004.22;;;18.93;72.79
61345;BME280;47216;42.656;23.232;2023-08-17T04:46:57;94004.00;;;19.03;73.32
61345;BME280;47216;42.656;23.232;2023-08-17T04:49:26;93993.50;;;19.12;72.45
61345;BME280;47216;42.656;23.232;2023-08-17T04:51:52;94003.19;;;19.16;72.60
61345;BME280;47216;42.656;23.232;2023-08-17T04:54:19;94007.97;;;19.28;72.32
61345;BME280;47216;42.656;23.232;2023-08-17T04:56:46;94000.69;;;19.34;72.45
61345;BME280;47216;42.656;23.232;2023-08-17T04:59:12;94009.00;;;19.41;72.44
61345;BME280;47216;42.656;23.232;2023-08-17T05:01:39;94006.25;;;19.46;72.37
61345;BME280;47216;42.656;23.232;2023-08-17T05:04:06;94001.34;;;19.53;71.97
61345;BME280;47216;42.656;23.232;2023-08-17T05:06:34;94007.00;;;19.60;72.31
61345;BME280;47216;42.656;23.232;2023-08-17T05:09:02;94003.06;;;19.71;72.61
61345;BME280;47216;42.656;23.232;2023-08-17T05:11:30;94003.41;;;19.79;72.73
61345;BME280;47216;42.656;23.232;2023-08-17T05:13:57;94002.22;;;19.85;72.69
61345;BME280;47216;42.656;23.232;2023-08-17T05:16:23;94004.44;;;19.91;72.58
61345;BME280;47216;42.656;23.232;2023-08-17T05:18:50;94003.53;;;19.96;72.63
61345;BME280;47216;42.656;23.232;2023-08-17T05:21:17;93998.78;;;20.07;72.57
61345;BME280;47216;42.656;23.232;2023-08-17T05:23:45;94000.38;;;20.17;72.16
61345;BME280;47216;42.656;23.232;2023-08-17T05:26:12;94005.91;;;20.29;71.75
61345;BME280;47216;42.656;23.232;2023-08-17T05:28:38;93998.66;;;20.43;70.85
61345;BME280;47216;42.656;23.232;2023-08-17T05:31:05;93992.34;;;20.62;70.50
61345;BME280;47216;42.656;23.232;2023-08-17T05:33:32;94000.50;;;20.74;69.68
61345;BME280;47216;42.656;23.232;2023-08-17T05:35:59;94000.69;;;20.86;68.62
61345;BME280;47216;42.656;23.232;2023-08-17T05:38:26;94000.88;;;20.98;68.28
61345;BME280;47216;42.656;23.232;2023-08-17T05:40:58;93997.63;;;21.10;68.60
61345;BME280;47216;42.656;23.232;2023-08-17T05:43:25;94001.84;;;21.20;68.80
61345;BME280;47216;42.656;23.232;2023-08-17T05:45:52;94005.28;;;21.29;68.29
61345;BME280;47216;42.656;23.232;2023-08-17T05:48:19;94005.81;;;21.40;67.86
61345;BME280;47216;42.656;23.232;2023-08-17T05:50:46;94004.84;;;21.53;67.40
61345;BME280;47216;42.656;23.232;2023-08-17T05:53:13;94005.19;;;21.60;66.90
61345;BME280;47216;42.656;23.232;2023-08-17T05:55:39;94005.66;;;21.71;65.65
61345;BME280;47216;42.656;23.232;2023-08-17T05:58:08;94005.34;;;21.81;64.03
61345;BME280;47216;42.656;23.232;2023-08-17T06:00:34;94003.47;;;21.91;64.79
61345;BME280;47216;42.656;23.232;2023-08-17T06:03:01;94009.06;;;21.98;64.26
61345;BME280;47216;42.656;23.232;2023-08-17T06:05:28;94008.59;;;22.05;63.70
61345;BME280;47216;42.656;23.232;2023-08-17T06:07:55;94013.72;;;22.18;63.18
61345;BME280;47216;42.656;23.232;2023-08-17T06:10:23;94016.69;;;22.26;62.27
61345;BME280;47216;42.656;23.232;2023-08-17T06:12:51;94011.69;;;22.33;61.46
61345;BME280;47216;42.656;23.232;2023-08-17T06:15:19;94009.31;;;22.40;61.22
61345;BME280;47216;42.656;23.232;2023-08-17T06:17:46;94001.31;;;22.49;61.06
61345;BME280;47216;42.656;23.232;2023-08-17T06:20:15;94007.97;;;22.63;60.05
61345;BME280;47216;42.656;23.232;2023-08-17T06:22:42;94005.78;;;22.65;60.58
61345;BME280;47216;42.656;23.232;2023-08-17T06:25:09;94007.75;;;22.77;59.87
61345;BME280;47216;42.656;23.232;2023-08-17T06:27:36;94008.81;;;22.85;59.64
61345;BME280;47216;42.656;23.232;2023-08-17T06:30:03;94011.94;;;22.87;59.90
61345;BME280;47216;42.656;23.232;2023-08-17T06:32:32;94021.47;;;22.88;60.16
61345;BME280;47216;42.656;23.232;2023-08-17T06:34:58;94007.22;;;23.01;59.01
61345;BME280;47216;42.656;23.232;2023-08-17T06:37:25;94014.16;;;23.15;58.59
61345;BME280;47216;42.656;23.232;2023-08-17T06:39:52;94013.81;;;23.25;58.09
61345;BME280;47216;42.656;23.232;2023-08-17T06:42:19;94017.50;;;23.33;57.38
61345;BME280;47216;42.656;23.232;2023-08-17T06:44:45;94017.91;;;23.43;55.79
61345;BME280;47216;42.656;23.232;2023-08-17T06:47:12;94019.72;;;23.52;56.13
61345;BME280;47216;42.656;23.232;2023-08-17T06:49:40;94020.88;;;23.63;55.84
61345;BME280;47216;42.656;23.232;2023-08-17T06:52:07;94012.22;;;23.66;55.77
61345;BME280;47216;42.656;23.232;2023-08-17T06:54:34;94017.53;;;23.75;55.52
61345;BME280;47216;42.656;23.232;2023-08-17T06:57:01;94018.56;;;23.82;55.54
61345;BME280;47216;42.656;23.232;2023-08-17T06:59:27;94012.28;;;23.87;55.80
61345;BME280;47216;42.656;23.232;2023-08-17T07:01:54;94016.88;;;23.99;56.40
61345;BME280;47216;42.656;23.232;2023-08-17T07:04:21;94006.44;;;24.06;56.82
61345;BME280;47216;42.656;23.232;2023-08-17T07:06:49;94007.34;;;24.10;56.78
61345;BME280;47216;42.656;23.232;2023-08-17T07:09:16;93999.63;;;24.29;56.67
61345;BME280;47216;42.656;23.232;2023-08-17T07:11:44;93997.88;;;24.46;56.87
61345;BME280;47216;42.656;23.232;2023-08-17T07:14:11;94004.13;;;24.50;55.90
61345;BME280;47216;42.656;23.232;2023-08-17T07:16:37;93995.25;;;24.58;55.58
61345;BME280;47216;42.656;23.232;2023-08-17T07:19:04;93991.72;;;24.66;55.81
61345;BME280;47216;42.656;23.232;2023-08-17T07:21:32;93998.81;;;24.74;54.28
61345;BME280;47216;42.656;23.232;2023-08-17T07:24:11;93990.47;;;24.88;53.66
61345;BME280;47216;42.656;23.232;2023-08-17T07:26:38;93985.59;;;24.90;52.30
61345;BME280;47216;42.656;23.232;2023-08-17T07:29:05;93979.25;;;25.07;52.36
61345;BME280;47216;42.656;23.232;2023-08-17T07:31:32;93981.00;;;25.15;51.82
61345;BME280;47216;42.656;23.232;2023-08-17T07:33:59;93976.81;;;25.27;50.56
61345;BME280;47216;42.656;23.232;2023-08-17T07:36:26;93984.44;;;25.41;50.00
61345;BME280;47216;42.656;23.232;2023-08-17T07:38:52;93971.53;;;25.43;49.24
61345;BME280;47216;42.656;23.232;2023-08-17T07:41:21;93982.09;;;25.51;48.84
61345;BME280;47216;42.656;23.232;2023-08-17T07:43:47;93978.50;;;25.60;47.58
61345;BME280;47216;42.656;23.232;2023-08-17T07:46:14;93981.13;;;25.72;45.92
61345;BME280;47216;42.656;23.232;2023-08-17T07:48:41;93979.31;;;25.88;45.86
61345;BME280;47216;42.656;23.232;2023-08-17T07:51:07;93978.72;;;25.95;46.56
61345;BME280;47216;42.656;23.232;2023-08-17T07:53:34;93976.75;;;26.08;45.78
61345;BME280;47216;42.656;23.232;2023-08-17T07:56:01;93984.78;;;26.08;45.72
61345;BME280;47216;42.656;23.232;2023-08-17T07:58:29;93977.50;;;26.20;45.06
61345;BME280;47216;42.656;23.232;2023-08-17T08:00:56;93981.44;;;26.27;44.87
61345;BME280;47216;42.656;23.232;2023-08-17T08:03:23;93975.00;;;26.28;44.98
61345;BME280;47216;42.656;23.232;2023-08-17T08:05:50;93972.06;;;26.33;45.59
61345;BME280;47216;42.656;23.232;2023-08-17T08:08:16;93966.13;;;26.39;44.54
61345;BME280;47216;42.656;23.232;2023-08-17T08:10:45;93968.25;;;26.50;44.88
61345;BME280;47216;42.656;23.232;2023-08-17T08:13:12;93961.13;;;26.54;45.58
61345;BME280;47216;42.656;23.232;2023-08-17T08:15:40;93965.56;;;26.62;45.08
61345;BME280;47216;42.656;23.232;2023-08-17T08:18:07;93961.41;;;26.65;45.22
61345;BME280;47216;42.656;23.232;2023-08-17T08:20:34;93957.84;;;26.76;44.98
61345;BME280;47216;42.656;23.232;2023-08-17T08:23:01;93965.94;;;26.80;45.70
61345;BME280;47216;42.656;23.232;2023-08-17T08:25:28;93956.53;;;26.86;45.46
61345;BME280;47216;42.656;23.232;2023-08-17T08:27:55;93962.00;;;26.90;45.23
61345;BME280;47216;42.656;23.232;2023-08-17T08:30:22;93962.06;;;26.93;44.33
61345;BME280;47216;42.656;23.232;2023-08-17T08:32:50;93959.09;;;26.98;44.80
61345;BME280;47216;42.656;23.232;2023-08-17T08:35:17;93955.38;;;27.03;44.88
61345;BME280;47216;42.656;23.232;2023-08-17T08:37:43;93958.63;;;27.12;44.64
61345;BME280;47216;42.656;23.232;2023-08-17T08:40:11;93961.94;;;27.21;44.35
61345;BME280;47216;42.656;23.232;2023-08-17T08:42:39;93958.78;;;27.19;44.54
61345;BME280;47216;42.656;23.232;2023-08-17T08:45:07;93961.69;;;27.27;44.16
61345;BME280;47216;42.656;23.232;2023-08-17T08:47:36;93953.56;;;27.42;44.82
61345;BME280;47216;42.656;23.232;2023-08-17T08:50:05;93949.91;;;27.51;44.87
61345;BME280;47216;42.656;23.232;2023-08-17T08:52:34;93952.66;;;27.54;44.91
61345;BME280;47216;42.656;23.232;2023-08-17T08:55:07;93957.53;;;27.68;44.97
61345;BME280;47216;42.656;23.232;2023-08-17T08:57:37;93953.38;;;27.71;45.25
61345;BME280;47216;42.656;23.232;2023-08-17T09:00:05;93948.59;;;27.80;43.84
61345;BME280;47216;42.656;23.232;2023-08-17T09:02:33;93954.94;;;27.91;43.47
61345;BME280;47216;42.656;23.232;2023-08-17T09:05:01;93943.38;;;27.87;44.24
61345;BME280;47216;42.656;23.232;2023-08-17T09:07:30;93942.06;;;28.00;43.29
61345;BME280;47216;42.656;23.232;2023-08-17T09:09:57;93946.91;;;28.14;43.69
61345;BME280;47216;42.656;23.232;2023-08-17T09:12:25;93941.97;;;28.16;43.21
61345;BME280;47216;42.656;23.232;2023-08-17T09:14:52;93940.03;;;28.13;43.42
61345;BME280;47216;42.656;23.232;2023-08-17T09:17:23;93933.16;;;28.16;43.57
61345;BME280;47216;42.656;23.232;2023-08-17T09:19:50;93937.88;;;28.22;43.18
61345;BME280;47216;42.656;23.232;2023-08-17T09:22:22;93936.19;;;28.37;42.67
61345;BME280;47216;42.656;23.232;2023-08-17T09:24:51;93942.28;;;28.34;43.25
61345;BME280;47216;42.656;23.232;2023-08-17T09:27:17;93930.59;;;28.46;42.81
61345;BME280;47216;42.656;23.232;2023-08-17T09:29:44;93930.59;;;28.46;43.38
61345;BME280;47216;42.656;23.232;2023-08-17T09:32:14;93925.38;;;28.53;42.25
61345;BME280;47216;42.656;23.232;2023-08-17T09:34:41;93917.16;;;28.65;42.96
61345;BME280;47216;42.656;23.232;2023-08-17T09:37:09;93918.03;;;28.73;42.21
61345;BME280;47216;42.656;23.232;2023-08-17T09:39:38;93927.09;;;28.65;41.70
61345;BME280;47216;42.656;23.232;2023-08-17T09:42:06;93913.09;;;28.79;41.71
61345;BME280;47216;42.656;23.232;2023-08-17T09:44:33;93919.00;;;28.88;42.44
61345;BME280;47216;42.656;23.232;2023-08-17T09:47:01;93913.88;;;29.06;42.14
61345;BME280;47216;42.656;23.232;2023-08-17T09:49:31;93907.25;;;29.00;42.01
61345;BME280;47216;42.656;23.232;2023-08-17T09:51:59;93894.66;;;29.04;41.08
61345;BME280;47216;42.656;23.232;2023-08-17T09:54:27;93898.91;;;29.05;40.88
61345;BME280;47216;42.656;23.232;2023-08-17T09:56:56;93904.09;;;29.17;41.11
61345;BME280;47216;42.656;23.232;2023-08-17T09:59:25;93895.72;;;29.22;40.78
61345;BME280;47216;42.656;23.232;2023-08-17T10:01:52;93893.19;;;29.37;40.61
61345;BME280;47216;42.656;23.232;2023-08-17T10:04:21;93900.53;;;29.40;39.65
61345;BME280;47216;42.656;23.232;2023-08-17T10:06:48;93886.31;;;29.39;39.57
61345;BME280;47216;42.656;23.232;2023-08-17T10:09:22;93885.31;;;29.51;39.32
61345;BME280;47216;42.656;23.232;2023-08-17T10:11:52;93889.22;;;29.57;38.33
61345;BME280;47216;42.656;23.232;2023-08-17T10:14:26;93891.56;;;29.62;39.13
61345;BME280;47216;42.656;23.232;2023-08-17T10:17:01;93890.53;;;29.70;39.36
61345;BME280;47216;42.656;23.232;2023-08-17T10:19:35;93887.91;;;29.74;38.88
61345;BME280;47216;42.656;23.232;2023-08-17T10:22:08;93899.50;;;29.85;38.83
61345;BME280;47216;42.656;23.232;2023-08-17T10:24:37;93892.66;;;29.91;38.06
61345;BME280;47216;42.656;23.232;2023-08-17T10:27:05;93882.94;;;29.80;37.64
61345;BME280;47216;42.656;23.232;2023-08-17T10:29:34;93882.38;;;29.97;37.32
61345;BME280;47216;42.656;23.232;2023-08-17T10:32:03;93882.03;;;30.02;38.29
61345;BME280;47216;42.656;23.232;2023-08-17T10:34:30;93887.53;;;30.16;37.89
61345;BME280;47216;42.656;23.232;2023-08-17T10:36:57;93882.75;;;30.36;36.91
61345;BME280;47216;42.656;23.232;2023-08-17T10:39:26;93876.19;;;30.34;37.10
61345;BME280;47216;42.656;23.232;2023-08-17T10:41:54;93883.81;;;30.28;36.42
61345;BME280;47216;42.656;23.232;2023-08-17T10:44:44;93889.81;;;30.14;36.75
61345;BME280;47216;42.656;23.232;2023-08-17T10:47:21;93882.28;;;30.31;36.57
61345;BME280;47216;42.656;23.232;2023-08-17T10:49:50;93867.81;;;30.50;36.38
61345;BME280;47216;42.656;23.232;2023-08-17T10:52:28;93875.53;;;30.51;35.71
61345;BME280;47216;42.656;23.232;2023-08-17T10:54:56;93871.69;;;30.52;36.38
61345;BME280;47216;42.656;23.232;2023-08-17T10:57:33;93870.97;;;30.55;36.46
61345;BME280;47216;42.656;23.232;2023-08-17T11:00:25;93862.56;;;30.68;35.94
61345;BME280;47216;42.656;23.232;2023-08-17T11:02:54;93864.94;;;30.80;35.67
61345;BME280;47216;42.656;23.232;2023-08-17T11:05:40;93865.78;;;30.84;35.72
61345;BME280;47216;42.656;23.232;2023-08-17T11:08:08;93870.47;;;30.94;35.71
61345;BME280;47216;42.656;23.232;2023-08-17T11:10:36;93852.03;;;31.04;35.63
61345;BME280;47216;42.656;23.232;2023-08-17T11:13:04;93848.94;;;31.02;35.10
61345;BME280;47216;42.656;23.232;2023-08-17T11:15:38;93862.03;;;30.99;34.96
61345;BME280;47216;42.656;23.232;2023-08-17T11:18:08;93857.44;;;31.07;34.80
61345;BME280;47216;42.656;23.232;2023-08-17T11:20:36;93849.00;;;31.16;34.34
61345;BME280;47216;42.656;23.232;2023-08-17T11:23:04;93843.56;;;31.02;34.30
61345;BME280;47216;42.656;23.232;2023-08-17T11:25:32;93844.72;;;31.08;35.01
61345;BME280;47216;42.656;23.232;2023-08-17T11:28:00;93844.78;;;31.15;34.95
61345;BME280;47216;42.656;23.232;2023-08-17T11:30:27;93853.22;;;31.13;34.28
61345;BME280;47216;42.656;23.232;2023-08-17T11:32:56;93844.41;;;31.20;34.33
61345;BME280;47216;42.656;23.232;2023-08-17T11:35:23;93845.22;;;31.24;34.07
61345;BME280;47216;42.656;23.232;2023-08-17T11:37:50;93836.75;;;31.29;34.06
61345;BME280;47216;42.656;23.232;2023-08-17T11:40:17;93833.66;;;31.27;34.25
61345;BME280;47216;42.656;23.232;2023-08-17T11:42:45;93836.75;;;31.33;34.49
61345;BME280;47216;42.656;23.232;2023-08-17T11:45:13;93836.78;;;31.36;34.43
61345;BME280;47216;42.656;23.232;2023-08-17T11:47:41;93834.91;;;31.51;34.99
61345;BME280;47216;42.656;23.232;2023-08-17T11:50:11;93836.44;;;31.49;35.38
61345;BME280;47216;42.656;23.232;2023-08-17T11:52:38;93829.53;;;31.55;35.30
61345;BME280;47216;42.656;23.232;2023-08-17T11:55:06;93838.03;;;31.64;35.65
61345;BME280;47216;42.656;23.232;2023-08-17T11:57:35;93832.25;;;31.69;35.95
61345;BME280;47216;42.656;23.232;2023-08-17T12:00:03;93834.56;;;31.67;35.31
61345;BME280;47216;42.656;23.232;2023-08-17T12:02:32;93829.56;;;31.69;35.21
61345;BME280;47216;42.656;23.232;2023-08-17T12:05:03;93833.03;;;31.66;35.46
61345;BME280;47216;42.656;23.232;2023-08-17T12:07:33;93834.56;;;31.67;35.75
61345;BME280;47216;42.656;23.232;2023-08-17T12:10:00;93831.50;;;31.76;35.74
61345;BME280;47216;42.656;23.232;2023-08-17T12:12:28;93829.94;;;31.75;35.90
61345;BME280;47216;42.656;23.232;2023-08-17T12:14:56;93814.56;;;31.68;35.31
61345;BME280;47216;42.656;23.232;2023-08-17T12:17:24;93819.94;;;31.68;35.73
61345;BME280;47216;42.656;23.232;2023-08-17T12:19:55;93818.81;;;31.73;35.20
61345;BME280;47216;42.656;23.232;2023-08-17T12:22:24;93818.41;;;31.74;35.79
61345;BME280;47216;42.656;23.232;2023-08-17T12:24:53;93823.78;;;31.74;36.34
61345;BME280;47216;42.656;23.232;2023-08-17T12:27:22;93823.03;;;31.77;35.64
61345;BME280;47216;42.656;23.232;2023-08-17T12:29:51;93823.81;;;31.78;36.05
61345;BME280;47216;42.656;23.232;2023-08-17T12:32:19;93813.81;;;31.82;35.47
61345;BME280;47216;42.656;23.232;2023-08-17T12:34:46;93808.41;;;31.86;35.81
61345;BME280;47216;42.656;23.232;2023-08-17T12:37:18;93814.63;;;32.00;35.45
61345;BME280;47216;42.656;23.232;2023-08-17T12:39:45;93809.59;;;32.02;35.35
61345;BME280;47216;42.656;23.232;2023-08-17T12:42:14;93813.84;;;32.11;35.62
61345;BME280;47216;42.656;23.232;2023-08-17T12:44:41;93815.38;;;32.15;35.67
61345;BME280;47216;42.656;23.232;2023-08-17T12:47:07;93821.56;;;32.27;36.68
61345;BME280;47216;42.656;23.232;2023-08-17T12:49:35;93817.69;;;32.20;38.63
61345;BME280;47216;42.656;23.232;2023-08-17T12:52:02;93823.47;;;32.33;38.75
61345;BME280;47216;42.656;23.232;2023-08-17T12:54:29;93816.91;;;32.34;37.36